createdAt,value
2022-11-05T00:01:33.626Z,1.02
2022-11-05T00:04:18.782Z,2.63
2022-11-05T00:07:04.574Z,1.48
2022-11-05T00:09:32.958Z,1.13
2022-11-05T00:12:22.195Z,1.23
2022-11-05T00:15:07.729Z,1.20
2022-11-05T00:17:34.311Z,1.70
2022-11-05T00:20:00.874Z,0.93
2022-11-05T00:22:46.631Z,0.90
2022-11-05T00:25:19.625Z,1.27
2022-11-05T00:27:50.797Z,1.63
2022-11-05T00:30:25.715Z,1.45
2022-11-05T00:32:52.981Z,1.20
2022-11-05T00:35:21.392Z,1.23
2022-11-05T00:37:50.322Z,1.65
2022-11-05T00:40:17.370Z,1.38
2022-11-05T00:43:02.780Z,0.75
2022-11-05T00:45:30.453Z,2.15
2022-11-05T00:48:15.823Z,1.38
2022-11-05T00:50:42.555Z,1.50
2022-11-05T00:53:09.357Z,1.73
2022-11-05T00:55:41.930Z,2.17
2022-11-05T00:58:18.956Z,1.83
2022-11-05T01:00:52.966Z,1.20
2022-11-05T01:03:22.117Z,1.65
2022-11-05T01:05:51.324Z,1.95
2022-11-05T01:08:19.486Z,1.10
2022-11-05T01:10:56.932Z,1.35
2022-11-05T01:13:28.971Z,1.48
2022-11-05T01:15:56.234Z,0.82
2022-11-05T01:18:24.512Z,2.15
2022-11-05T01:20:51.291Z,2.45
2022-11-05T01:23:18.153Z,0.80
2022-11-05T01:25:45.792Z,1.30
2022-11-05T01:28:12.338Z,0.93
2022-11-05T01:30:39.267Z,0.93
2022-11-05T01:33:06.070Z,1.25
2022-11-05T01:35:32.652Z,1.27
2022-11-05T01:37:59.350Z,1.40
2022-11-05T01:40:26.096Z,1.20
2022-11-05T01:42:53.018Z,1.20
2022-11-05T01:45:28.400Z,1.85
2022-11-05T01:48:07.098Z,1.15
2022-11-05T01:50:35.078Z,1.67
2022-11-05T01:53:25.213Z,1.25
2022-11-05T01:56:05.187Z,0.95
2022-11-05T01:58:39.470Z,0.90
2022-11-05T02:01:06.063Z,1.60
2022-11-05T02:03:32.749Z,0.82
2022-11-05T02:06:00.657Z,1.55
2022-11-05T02:08:45.886Z,1.42
2022-11-05T02:11:14.405Z,1.23
2022-11-05T02:13:40.998Z,1.63
2022-11-05T02:16:29.360Z,1.40
2022-11-05T02:19:33.099Z,1.98
2022-11-05T02:22:24.117Z,2.35
2022-11-05T02:25:24.815Z,1.40
2022-11-05T02:28:00.150Z,1.85
2022-11-05T02:30:41.322Z,1.10
2022-11-05T02:33:22.711Z,1.42
2022-11-05T02:36:00.974Z,1.08
2022-11-05T02:38:34.404Z,0.85
2022-11-05T02:44:03.296Z,1.73
2022-11-05T02:47:04.582Z,0.88
2022-11-05T02:50:08.196Z,2.38
2022-11-05T02:52:43.330Z,1.23
2022-11-05T02:55:15.418Z,2.00
2022-11-05T02:57:45.180Z,0.80
2022-11-05T03:00:45.666Z,0.98
2022-11-05T03:03:21.904Z,1.95
2022-11-05T03:06:06.632Z,1.15
2022-11-05T03:09:03.301Z,1.17
2022-11-05T03:11:33.010Z,1.98
2022-11-05T03:14:05.569Z,1.60
2022-11-05T03:16:38.907Z,1.67
2022-11-05T03:19:13.400Z,1.58
2022-11-05T03:21:58.003Z,1.50
2022-11-05T03:24:27.515Z,1.67
2022-11-05T03:27:00.963Z,1.90
2022-11-05T03:31:56.326Z,1.60
2022-11-05T03:34:27.832Z,1.38
2022-11-05T03:36:56.282Z,0.93
2022-11-05T03:39:31.939Z,1.08
2022-11-05T03:41:59.003Z,1.08
2022-11-05T03:44:29.509Z,1.13
2022-11-05T03:47:01.940Z,1.33
2022-11-05T03:49:33.362Z,0.93
2022-11-05T03:52:11.227Z,0.88
2022-11-05T03:54:37.969Z,1.13
2022-11-05T03:57:10.937Z,0.82
2022-11-05T03:59:44.938Z,1.95
2022-11-05T04:02:13.694Z,1.20
2022-11-05T04:04:40.947Z,0.57
2022-11-05T04:07:27.722Z,1.38
2022-11-05T04:10:23.319Z,0.85
2022-11-05T04:13:08.245Z,1.25
2022-11-05T04:15:54.871Z,1.15
2022-11-05T04:18:21.602Z,0.98
2022-11-05T04:21:06.971Z,1.48
2022-11-05T04:23:51.936Z,1.13
2022-11-05T04:26:23.293Z,0.98
2022-11-05T04:29:11.236Z,0.88
2022-11-05T04:31:38.424Z,1.17
2022-11-05T04:34:04.961Z,1.05
2022-11-05T04:36:31.492Z,0.70
2022-11-05T04:38:58.048Z,0.65
2022-11-05T04:41:26.102Z,1.13
2022-11-05T04:43:52.676Z,0.98
2022-11-05T04:46:19.242Z,1.33
2022-11-05T04:48:45.805Z,1.05
2022-11-05T04:51:12.337Z,1.30
2022-11-05T04:53:38.866Z,0.93
2022-11-05T04:56:24.949Z,0.38
2022-11-05T04:58:51.933Z,0.90
2022-11-05T05:01:20.957Z,0.75
2022-11-05T05:03:48.740Z,0.55
2022-11-05T05:06:15.882Z,1.08
2022-11-05T05:08:42.712Z,1.58
2022-11-05T05:11:11.586Z,1.08
2022-11-05T05:13:38.132Z,1.23
2022-11-05T05:16:19.524Z,1.48
2022-11-05T05:18:46.669Z,0.93
2022-11-05T05:21:32.723Z,0.95
2022-11-05T05:23:59.403Z,0.82
2022-11-05T05:26:26.010Z,1.13
2022-11-05T05:28:53.744Z,0.50
2022-11-05T05:31:21.136Z,0.88
2022-11-05T05:33:48.142Z,1.33
2022-11-05T05:36:15.016Z,0.80
2022-11-05T05:38:41.607Z,1.75
2022-11-05T05:41:08.253Z,0.43
2022-11-05T05:43:34.814Z,0.90
2022-11-05T05:46:05.595Z,0.90
2022-11-05T05:48:32.153Z,0.57
2022-11-05T05:51:05.987Z,0.80
2022-11-05T05:53:32.759Z,0.95
2022-11-05T05:55:59.511Z,0.93
2022-11-05T05:58:27.360Z,0.60
2022-11-05T06:00:54.603Z,1.20
2022-11-05T06:03:21.231Z,0.57
2022-11-05T06:05:47.784Z,0.98
2022-11-05T06:08:14.335Z,1.08
2022-11-05T06:10:40.968Z,1.10
2022-11-05T06:13:07.791Z,1.13
2022-11-05T06:15:36.055Z,0.98
2022-11-05T06:18:02.914Z,0.63
2022-11-05T06:20:29.441Z,0.47
2022-11-05T06:22:59.010Z,0.52
2022-11-05T06:25:25.702Z,1.25
2022-11-05T06:27:53.407Z,1.63
2022-11-05T06:30:21.698Z,0.30
2022-11-05T06:32:48.250Z,1.58
2022-11-05T06:35:14.811Z,0.80
2022-11-05T06:37:41.350Z,1.33
2022-11-05T06:40:08.700Z,0.50
2022-11-05T06:42:35.243Z,0.40
2022-11-05T06:45:01.789Z,0.65
2022-11-05T06:47:28.384Z,0.77
2022-11-05T06:49:56.813Z,0.80
2022-11-05T06:52:23.340Z,0.55
2022-11-05T06:54:49.973Z,1.25
2022-11-05T06:57:16.501Z,0.43
2022-11-05T06:59:43.052Z,0.50
2022-11-05T07:02:12.859Z,1.15
2022-11-05T07:04:39.490Z,0.82
2022-11-05T07:07:06.040Z,0.70
2022-11-05T07:09:32.597Z,0.47
2022-11-05T07:11:59.128Z,0.90
2022-11-05T07:14:25.670Z,0.93
2022-11-05T07:16:52.223Z,0.90
2022-11-05T07:19:18.782Z,0.45
2022-11-05T07:21:45.959Z,0.95
2022-11-05T07:24:14.359Z,1.42
2022-11-05T07:26:41.080Z,0.70
2022-11-05T07:29:07.647Z,1.48
2022-11-05T07:31:34.206Z,0.60
2022-11-05T07:34:01.029Z,0.50
2022-11-05T07:36:27.586Z,0.68
2022-11-05T07:38:59.935Z,0.63
2022-11-05T07:41:26.983Z,1.38
2022-11-05T07:43:53.573Z,0.50
2022-11-05T07:46:20.166Z,1.25
2022-11-05T07:48:46.706Z,0.30
2022-11-05T07:51:13.246Z,1.42
2022-11-05T07:53:44.066Z,0.52
2022-11-05T07:56:12.935Z,1.23
2022-11-05T07:58:39.698Z,0.65
2022-11-05T08:01:07.286Z,1.20
2022-11-05T08:03:34.468Z,0.90
2022-11-05T08:06:01.269Z,2.28
2022-11-05T08:08:27.830Z,4.93
2022-11-05T08:10:54.401Z,2.35
2022-11-05T08:13:21.029Z,6.63
2022-11-05T08:15:47.634Z,6.90
2022-11-05T08:18:16.383Z,3.05
2022-11-05T08:20:44.190Z,3.60
2022-11-05T08:23:11.404Z,3.78
2022-11-05T08:25:38.261Z,4.45
2022-11-05T08:28:07.506Z,6.63
2022-11-05T08:30:34.690Z,9.45
2022-11-05T08:33:03.756Z,20.30
2022-11-05T08:35:30.709Z,13.10
2022-11-05T08:38:02.829Z,12.52
2022-11-05T08:40:30.956Z,15.05
2022-11-05T08:42:58.518Z,7.28
2022-11-05T08:45:26.314Z,5.60
2022-11-05T08:48:19.531Z,6.32
2022-11-05T08:50:47.384Z,8.90
2022-11-05T08:53:14.977Z,8.80
2022-11-05T08:55:42.107Z,8.23
2022-11-05T08:58:15.376Z,3.22
2022-11-05T09:00:42.294Z,6.32
2022-11-05T09:03:09.730Z,6.88
2022-11-05T09:05:39.106Z,4.63
2022-11-05T09:08:06.670Z,3.97
2022-11-05T09:10:36.063Z,8.23
2022-11-05T09:13:03.091Z,5.68
2022-11-05T09:15:29.721Z,7.38
2022-11-05T09:17:56.570Z,6.28
2022-11-05T09:20:23.406Z,5.80
2022-11-05T09:22:50.027Z,7.88
2022-11-05T09:25:16.611Z,3.63
2022-11-05T09:27:43.701Z,3.13
2022-11-05T09:30:11.612Z,3.90
2022-11-05T09:32:38.437Z,4.55
2022-11-05T09:35:05.463Z,3.47
2022-11-05T09:37:32.065Z,2.58
2022-11-05T09:39:58.714Z,3.42
2022-11-05T09:42:29.708Z,3.80
2022-11-05T09:45:09.026Z,5.30
2022-11-05T09:47:44.877Z,3.58
2022-11-05T09:50:15.922Z,3.17
2022-11-05T09:52:42.466Z,4.95
2022-11-05T09:55:21.870Z,2.45
2022-11-05T09:57:53.571Z,4.72
2022-11-05T10:00:20.262Z,4.53
2022-11-05T10:02:56.442Z,4.45
2022-11-05T10:05:27.148Z,5.18
2022-11-05T10:07:58.570Z,5.50
2022-11-05T10:10:40.528Z,4.28
2022-11-05T10:13:21.019Z,4.72
2022-11-05T10:16:24.079Z,5.10
2022-11-05T10:19:06.479Z,6.32
2022-11-05T10:22:04.484Z,6.78
2022-11-05T10:24:20.830Z,6.40
2022-11-05T10:26:50.425Z,5.00
2022-11-05T10:29:25.339Z,7.07
2022-11-05T10:31:53.675Z,9.60
2022-11-05T10:34:21.419Z,5.40
2022-11-05T10:36:48.390Z,4.15
2022-11-05T10:39:18.495Z,5.22
2022-11-05T10:42:09.260Z,3.83
2022-11-05T10:44:44.058Z,4.60
2022-11-05T10:47:52.843Z,4.05
2022-11-05T10:50:22.187Z,3.88
2022-11-05T10:52:54.215Z,4.18
2022-11-05T10:55:37.005Z,4.40
2022-11-05T10:58:11.634Z,2.67
2022-11-05T11:00:38.316Z,2.85
2022-11-05T11:03:09.494Z,4.22
2022-11-05T11:05:40.603Z,3.13
2022-11-05T11:08:12.844Z,6.72
2022-11-05T11:10:42.595Z,3.95
2022-11-05T11:13:28.921Z,3.83
2022-11-05T11:16:19.378Z,1.67
2022-11-05T11:18:45.974Z,3.78
2022-11-05T11:21:17.284Z,4.47
2022-11-05T11:23:54.273Z,3.83
2022-11-05T11:26:21.870Z,7.10
2022-11-05T11:29:00.007Z,3.92
2022-11-05T11:31:29.631Z,4.15
2022-11-05T11:34:04.618Z,3.17
2022-11-05T11:36:46.059Z,4.78
2022-11-05T11:39:22.071Z,3.10
2022-11-05T11:41:54.018Z,3.17
2022-11-05T11:44:27.375Z,7.40
2022-11-05T11:46:56.636Z,4.68
2022-11-05T11:49:34.071Z,4.65
2022-11-05T11:52:04.868Z,4.63
2022-11-05T11:54:33.260Z,4.28
2022-11-05T11:56:59.875Z,4.70
2022-11-05T11:59:53.777Z,5.00
2022-11-05T12:02:30.265Z,4.75
2022-11-05T12:05:11.974Z,5.57
2022-11-05T12:07:53.795Z,3.05
2022-11-05T12:10:48.316Z,4.22
2022-11-05T12:13:33.417Z,3.63
2022-11-05T12:16:18.139Z,5.07
2022-11-05T12:19:07.826Z,2.83
2022-11-05T12:21:53.320Z,5.03
2022-11-05T12:24:49.074Z,1.88
2022-11-05T12:27:34.330Z,4.78
2022-11-05T12:30:08.907Z,4.28
2022-11-05T12:33:06.966Z,3.50
2022-11-05T12:35:47.392Z,4.22
2022-11-05T12:38:47.730Z,2.47
2022-11-05T12:41:20.093Z,2.60
2022-11-05T12:44:04.056Z,5.20
2022-11-05T12:46:53.810Z,3.03
2022-11-05T12:50:18.583Z,5.38
2022-11-05T12:55:37.150Z,3.42
2022-11-05T12:58:10.924Z,2.15
2022-11-05T13:00:38.239Z,3.28
2022-11-05T13:03:48.925Z,2.55
2022-11-05T13:06:17.935Z,2.90
2022-11-05T13:08:56.310Z,3.35
2022-11-05T13:11:53.304Z,4.05
2022-11-05T13:14:40.894Z,5.18
2022-11-05T13:17:13.155Z,2.05
2022-11-05T13:19:44.361Z,4.93
2022-11-05T13:22:37.327Z,4.45
2022-11-05T13:25:19.578Z,4.78
2022-11-05T13:27:53.522Z,4.13
2022-11-05T13:30:22.751Z,7.00
2022-11-05T13:32:56.357Z,7.22
2022-11-05T13:35:37.227Z,5.72
2022-11-05T13:38:25.228Z,5.75
2022-11-05T13:41:14.295Z,5.90
2022-11-05T13:43:50.756Z,5.50
2022-11-05T13:46:26.291Z,5.10
2022-11-05T13:48:58.895Z,5.45
2022-11-05T13:51:47.739Z,7.37
2022-11-05T13:54:33.230Z,5.55
2022-11-05T13:57:32.124Z,6.75
2022-11-05T14:00:04.548Z,8.88
2022-11-05T14:02:52.877Z,8.07
2022-11-05T14:05:28.819Z,7.13
2022-11-05T14:07:56.172Z,6.03
2022-11-05T14:10:37.963Z,5.85
2022-11-05T14:13:16.589Z,9.57
2022-11-05T14:15:55.518Z,6.15
2022-11-05T14:18:25.022Z,8.68
2022-11-05T14:21:00.050Z,6.10
2022-11-05T14:23:37.714Z,7.57
2022-11-05T14:26:14.981Z,6.28
2022-11-05T14:28:42.993Z,6.57
2022-11-05T14:31:18.206Z,8.15
2022-11-05T14:33:59.509Z,8.27
2022-11-05T14:36:32.202Z,8.13
2022-11-05T14:39:22.846Z,7.37
2022-11-05T14:42:12.342Z,9.02
2022-11-05T14:44:59.760Z,7.97
2022-11-05T14:47:29.563Z,6.72
2022-11-05T14:50:03.899Z,8.75
2022-11-05T14:52:30.513Z,7.97
2022-11-05T14:54:58.003Z,7.93
2022-11-05T14:57:42.971Z,7.10
2022-11-05T15:00:36.606Z,7.50
2022-11-05T15:03:31.132Z,6.70
2022-11-05T15:06:20.282Z,6.60
2022-11-05T15:08:49.532Z,8.32
2022-11-05T15:11:25.763Z,7.45
2022-11-05T15:13:55.221Z,6.90
2022-11-05T15:16:31.103Z,4.28
2022-11-05T15:18:57.834Z,6.15
2022-11-05T15:21:24.855Z,8.73
2022-11-05T15:23:55.016Z,7.40
2022-11-05T15:26:45.531Z,6.97
2022-11-05T15:29:22.138Z,5.45
2022-11-05T15:31:49.328Z,7.53
2022-11-05T15:34:18.646Z,8.02
2022-11-05T15:36:54.909Z,8.10
2022-11-05T15:39:42.499Z,8.88
2022-11-05T15:42:23.056Z,6.22
2022-11-05T15:44:50.974Z,6.13
2022-11-05T15:47:25.906Z,8.50
2022-11-05T15:50:08.650Z,6.18
2022-11-05T15:52:45.763Z,5.28
2022-11-05T15:55:12.235Z,7.38
2022-11-05T15:57:59.010Z,7.78
2022-11-05T16:00:27.929Z,5.97
2022-11-05T16:03:01.079Z,6.25
2022-11-05T16:05:30.726Z,5.25
2022-11-05T16:08:01.518Z,5.20
2022-11-05T16:10:37.257Z,6.00
2022-11-05T16:13:23.620Z,5.20
2022-11-05T16:15:54.736Z,5.22
2022-11-05T16:18:23.747Z,5.45
2022-11-05T16:21:07.979Z,7.00
2022-11-05T16:23:49.495Z,5.43
2022-11-05T16:27:00.787Z,6.95
2022-11-05T16:29:38.194Z,5.82
2022-11-05T16:32:17.038Z,5.28
2022-11-05T16:34:51.581Z,6.65
2022-11-05T16:37:21.299Z,3.63
2022-11-05T16:39:47.909Z,5.28
2022-11-05T16:42:23.303Z,8.00
2022-11-05T16:44:54.896Z,4.75
2022-11-05T16:47:22.412Z,6.55
2022-11-05T16:49:49.560Z,3.45
2022-11-05T16:52:16.435Z,4.40
2022-11-05T16:54:43.243Z,6.13
2022-11-05T16:57:28.615Z,5.13
2022-11-05T16:59:56.978Z,4.43
2022-11-05T17:02:23.661Z,5.07
2022-11-05T17:04:50.371Z,3.78
2022-11-05T17:07:16.911Z,5.00
2022-11-05T17:09:43.606Z,4.18
2022-11-05T17:12:13.807Z,3.85
2022-11-05T17:14:40.488Z,4.30
2022-11-05T17:17:07.062Z,5.85
2022-11-05T17:19:33.652Z,3.22
2022-11-05T17:22:00.223Z,4.47
2022-11-05T17:24:26.749Z,4.15
2022-11-05T17:26:53.331Z,3.38
2022-11-05T17:29:19.914Z,4.15
2022-11-05T17:31:46.446Z,3.83
2022-11-05T17:34:13.004Z,3.92
2022-11-05T17:36:39.645Z,3.53
2022-11-05T17:39:06.190Z,5.38
2022-11-05T17:41:32.715Z,3.08
2022-11-05T17:44:00.316Z,3.05
2022-11-05T17:46:26.986Z,3.85
2022-11-05T17:48:53.549Z,2.78
2022-11-05T17:51:20.504Z,3.38
2022-11-05T17:53:49.046Z,3.78
2022-11-05T17:56:28.785Z,3.67
2022-11-05T17:58:56.025Z,3.35
2022-11-05T18:01:30.530Z,4.00
2022-11-05T18:03:57.544Z,3.95
2022-11-05T18:06:24.183Z,3.40
2022-11-05T18:08:50.760Z,3.97
2022-11-05T18:11:17.539Z,3.38
2022-11-05T18:13:44.094Z,4.35
2022-11-05T18:16:10.677Z,4.38
2022-11-05T18:18:37.305Z,3.80
2022-11-05T18:21:03.934Z,4.03
2022-11-05T18:23:30.492Z,4.18
2022-11-05T18:25:57.203Z,3.90
2022-11-05T18:28:23.797Z,3.92
2022-11-05T18:30:51.260Z,3.22
2022-11-05T18:33:17.859Z,3.08
2022-11-05T18:35:44.667Z,3.40
2022-11-05T18:38:11.353Z,2.90
2022-11-05T18:40:38.117Z,2.70
2022-11-05T18:43:04.760Z,2.72
2022-11-05T18:45:33.383Z,3.00
2022-11-05T18:48:01.293Z,3.00
2022-11-05T18:50:28.513Z,2.78
2022-11-05T18:52:55.112Z,2.63
2022-11-05T18:55:21.801Z,2.63
2022-11-05T18:57:48.350Z,2.78
2022-11-05T19:00:15.632Z,2.05
2022-11-05T19:02:42.249Z,3.58
2022-11-05T19:07:55.582Z,2.65
2022-11-05T19:10:22.131Z,2.38
2022-11-05T19:12:48.707Z,3.50
2022-11-05T19:15:15.279Z,3.85
2022-11-05T19:17:41.815Z,3.25
2022-11-05T19:20:09.071Z,3.55
2022-11-05T19:22:35.609Z,2.28
2022-11-05T19:25:02.175Z,2.50
2022-11-05T19:27:28.731Z,3.78
2022-11-05T19:29:55.314Z,3.40
2022-11-05T19:32:21.920Z,2.97
2022-11-05T19:34:48.489Z,2.65
2022-11-05T19:37:15.020Z,2.78
2022-11-05T19:39:41.857Z,3.10
2022-11-05T19:42:08.395Z,2.42
2022-11-05T19:44:34.985Z,2.33
2022-11-05T19:47:01.543Z,3.58
2022-11-05T19:49:30.914Z,2.47
2022-11-05T19:51:57.516Z,2.80
2022-11-05T19:54:24.046Z,3.33
2022-11-05T19:56:51.860Z,1.88
2022-11-05T19:59:18.515Z,3.10
2022-11-05T20:01:45.215Z,2.05
2022-11-05T20:04:12.052Z,3.17
2022-11-05T20:06:40.156Z,2.85
2022-11-05T20:09:25.532Z,2.05
2022-11-05T20:11:54.374Z,3.20
2022-11-05T20:14:21.253Z,3.30
2022-11-05T20:16:47.829Z,3.22
2022-11-05T20:19:18.454Z,2.60
2022-11-05T20:21:45.520Z,2.00
2022-11-05T20:24:15.260Z,1.88
2022-11-05T20:26:45.223Z,2.78
2022-11-05T20:29:12.979Z,2.53
2022-11-05T20:31:39.544Z,1.83
2022-11-05T20:34:06.079Z,2.25
2022-11-05T20:36:32.688Z,2.38
2022-11-05T20:38:59.358Z,2.38
2022-11-05T20:41:26.151Z,3.28
2022-11-05T20:43:52.778Z,1.92
2022-11-05T20:46:21.971Z,1.63
2022-11-05T20:48:48.693Z,2.95
2022-11-05T20:51:20.551Z,2.58
2022-11-05T20:53:47.739Z,1.95
2022-11-05T20:56:23.692Z,2.33
2022-11-05T20:58:50.782Z,3.10
2022-11-05T21:01:18.496Z,2.40
2022-11-05T21:03:46.173Z,2.50
2022-11-05T21:06:13.605Z,3.30
2022-11-05T21:08:40.579Z,2.25
2022-11-05T21:11:07.350Z,2.72
2022-11-05T21:13:34.099Z,2.17
2022-11-05T21:16:00.972Z,1.10
2022-11-05T21:18:29.791Z,1.67
2022-11-05T21:20:56.646Z,1.60
2022-11-05T21:23:23.612Z,2.38
2022-11-05T21:25:50.208Z,1.70
2022-11-05T21:28:16.906Z,1.77
2022-11-05T21:30:45.786Z,2.42
2022-11-05T21:33:13.963Z,2.03
2022-11-05T21:35:46.117Z,2.20
2022-11-05T21:38:14.450Z,1.80
2022-11-05T21:40:41.171Z,1.45
2022-11-05T21:43:07.886Z,1.88
2022-11-05T21:45:34.631Z,2.42
2022-11-05T21:48:01.170Z,2.10
2022-11-05T21:50:46.170Z,2.08
2022-11-05T21:53:34.321Z,2.58
2022-11-05T21:56:19.352Z,2.35
2022-11-05T21:59:08.959Z,1.92
2022-11-05T22:01:35.637Z,1.80
2022-11-05T22:04:03.409Z,1.38
2022-11-05T22:06:33.031Z,1.67
2022-11-05T22:08:59.581Z,1.70
2022-11-05T22:11:26.104Z,1.48
2022-11-05T22:13:53.164Z,3.78
2022-11-05T22:16:19.767Z,1.90
2022-11-05T22:18:46.314Z,2.25
2022-11-05T22:21:17.952Z,2.40
2022-11-05T22:23:44.705Z,2.20
2022-11-05T22:26:11.297Z,2.50
2022-11-05T22:28:37.838Z,2.47
2022-11-05T22:31:04.377Z,2.03
2022-11-05T22:33:31.164Z,1.52
2022-11-05T22:35:57.770Z,1.60
2022-11-05T22:38:24.312Z,2.20
2022-11-05T22:40:50.893Z,1.60
2022-11-05T22:43:17.423Z,1.48
2022-11-05T22:45:43.983Z,1.85
2022-11-05T22:48:11.006Z,1.52
2022-11-05T22:50:38.163Z,1.33
2022-11-05T22:53:04.773Z,1.77
2022-11-05T22:55:31.318Z,1.83
2022-11-05T22:57:57.882Z,2.72
2022-11-05T23:00:35.020Z,2.40
2022-11-05T23:03:02.868Z,2.35
2022-11-05T23:05:29.702Z,1.27
2022-11-05T23:08:14.895Z,2.13
2022-11-05T23:11:00.166Z,2.60
2022-11-05T23:13:26.895Z,2.40
2022-11-05T23:16:12.230Z,2.00
2022-11-05T23:18:57.556Z,2.22
2022-11-05T23:21:44.383Z,3.25
2022-11-05T23:24:12.686Z,1.80
2022-11-05T23:26:52.350Z,1.70
2022-11-05T23:29:20.396Z,2.90
2022-11-05T23:32:05.411Z,1.65
2022-11-05T23:34:32.196Z,1.40
2022-11-05T23:37:17.508Z,2.05
2022-11-05T23:39:44.155Z,1.38
2022-11-05T23:42:29.487Z,2.08
2022-11-05T23:45:14.908Z,1.73
2022-11-05T23:48:00.693Z,1.65
2022-11-05T23:50:27.426Z,2.10
2022-11-05T23:52:54.308Z,1.80
2022-11-05T23:55:21.458Z,1.50
2022-11-05T23:57:48.020Z,1.45
